createdAt,value
2022-08-16T00:01:24.789Z,22.43
2022-08-16T00:03:54.773Z,23.25
2022-08-16T00:06:23.204Z,22.45
2022-08-16T00:08:52.602Z,22.30
2022-08-16T00:11:21.231Z,22.39
2022-08-16T00:13:54.311Z,22.89
2022-08-16T00:17:05.646Z,22.91
2022-08-16T00:19:15.502Z,22.77
2022-08-16T00:21:44.733Z,22.73
2022-08-16T00:24:13.599Z,22.53
2022-08-16T00:26:59.890Z,21.61
2022-08-16T00:29:29.875Z,21.51
2022-08-16T00:32:05.668Z,21.70
2022-08-16T00:34:43.601Z,22.34
2022-08-16T00:37:24.531Z,22.39
2022-08-16T00:39:57.747Z,21.86
2022-08-16T00:42:30.082Z,22.20
2022-08-16T00:45:08.020Z,22.08
2022-08-16T00:47:42.476Z,21.20
2022-08-16T00:50:11.905Z,21.48
2022-08-16T00:52:46.023Z,21.85
2022-08-16T00:55:24.781Z,21.61
2022-08-16T00:58:12.866Z,21.71
2022-08-16T01:00:42.651Z,21.81
2022-08-16T01:03:12.914Z,21.42
2022-08-16T01:05:42.431Z,21.02
2022-08-16T01:08:35.099Z,20.94
2022-08-16T01:11:02.605Z,21.05
2022-08-16T01:13:31.911Z,21.24
2022-08-16T01:16:04.560Z,20.25
2022-08-16T01:18:44.293Z,20.43
2022-08-16T01:21:47.191Z,20.33
2022-08-16T01:24:51.951Z,20.98
2022-08-16T01:27:28.630Z,21.00
2022-08-16T01:30:01.402Z,20.87
2022-08-16T01:32:34.316Z,20.87
2022-08-16T01:35:06.834Z,20.86
2022-08-16T01:37:42.200Z,20.90
2022-08-16T01:40:12.317Z,20.87
2022-08-16T01:42:42.443Z,20.61
2022-08-16T01:45:10.520Z,20.27
2022-08-16T01:47:49.349Z,20.68
2022-08-16T01:51:07.872Z,20.79
2022-08-16T01:53:11.048Z,20.59
2022-08-16T01:55:41.680Z,20.62
2022-08-16T01:58:10.657Z,20.58
2022-08-16T02:00:40.805Z,20.21
2022-08-16T02:03:12.617Z,20.02
2022-08-16T02:05:42.113Z,20.17
2022-08-16T02:08:32.756Z,20.26
2022-08-16T02:11:05.341Z,20.33
2022-08-16T02:13:33.552Z,20.21
2022-08-16T02:16:01.940Z,19.94
2022-08-16T02:18:29.671Z,20.07
2022-08-16T02:21:00.199Z,20.36
2022-08-16T02:23:29.623Z,20.38
2022-08-16T02:25:59.527Z,20.29
2022-08-16T02:28:28.072Z,20.30
2022-08-16T02:31:00.201Z,20.00
2022-08-16T02:33:43.239Z,20.06
2022-08-16T02:36:47.715Z,20.04
2022-08-16T02:39:03.800Z,19.95
2022-08-16T02:41:37.422Z,19.72
2022-08-16T02:44:13.908Z,19.94
2022-08-16T02:46:49.821Z,19.94
2022-08-16T02:49:21.959Z,19.95
2022-08-16T02:52:00.239Z,19.93
2022-08-16T02:54:29.281Z,19.56
2022-08-16T02:56:57.128Z,19.36
2022-08-16T02:59:25.431Z,19.43
2022-08-16T03:02:09.015Z,19.36
2022-08-16T03:04:51.916Z,19.83
2022-08-16T03:07:27.596Z,19.79
2022-08-16T03:10:00.440Z,19.63
2022-08-16T03:12:30.399Z,19.96
2022-08-16T03:15:07.280Z,19.92
2022-08-16T03:17:36.854Z,19.78
2022-08-16T03:20:22.109Z,19.19
2022-08-16T03:23:01.790Z,19.68
2022-08-16T03:25:40.854Z,19.92
2022-08-16T03:28:13.214Z,20.01
2022-08-16T03:30:41.469Z,19.82
2022-08-16T03:33:10.193Z,19.74
2022-08-16T03:35:40.287Z,19.43
2022-08-16T03:38:32.627Z,19.57
2022-08-16T03:41:00.349Z,19.19
2022-08-16T03:43:52.029Z,20.08
2022-08-16T03:46:44.933Z,20.05
2022-08-16T03:49:13.137Z,19.99
2022-08-16T03:51:42.979Z,20.18
2022-08-16T03:54:12.906Z,20.12
2022-08-16T03:56:56.834Z,20.48
2022-08-16T03:59:29.522Z,20.42
2022-08-16T04:02:00.898Z,19.82
2022-08-16T04:04:32.663Z,20.33
2022-08-16T04:07:04.301Z,20.08
2022-08-16T04:09:37.987Z,20.54
2022-08-16T04:12:10.797Z,20.66
2022-08-16T04:14:55.741Z,20.81
2022-08-16T04:17:24.268Z,21.07
2022-08-16T04:19:58.408Z,21.00
2022-08-16T04:22:27.937Z,20.98
2022-08-16T04:24:59.439Z,21.08
2022-08-16T04:27:29.006Z,21.47
2022-08-16T04:30:02.719Z,21.52
2022-08-16T04:32:32.493Z,21.78
2022-08-16T04:35:06.308Z,21.99
2022-08-16T04:37:42.019Z,22.46
2022-08-16T04:40:20.523Z,22.98
2022-08-16T04:42:50.783Z,22.66
2022-08-16T04:45:35.700Z,22.87
2022-08-16T04:48:05.530Z,22.27
2022-08-16T04:50:34.302Z,22.93
2022-08-16T04:53:03.291Z,22.68
2022-08-16T04:55:38.118Z,22.86
2022-08-16T04:58:45.275Z,23.30
2022-08-16T05:00:56.720Z,23.88
2022-08-16T05:03:26.174Z,24.28
2022-08-16T05:05:55.788Z,23.96
2022-08-16T05:08:35.482Z,24.01
2022-08-16T05:11:08.266Z,23.97
2022-08-16T05:13:42.584Z,23.53
2022-08-16T05:16:22.994Z,23.63
2022-08-16T05:18:53.493Z,24.03
2022-08-16T05:21:27.064Z,24.08
2022-08-16T05:24:06.087Z,24.51
2022-08-16T05:26:40.978Z,24.82
2022-08-16T05:29:14.605Z,25.12
2022-08-16T05:31:53.013Z,25.91
2022-08-16T05:34:22.726Z,25.92
2022-08-16T05:36:53.242Z,25.85
2022-08-16T05:39:22.534Z,25.20
2022-08-16T05:41:54.273Z,24.83
2022-08-16T05:44:25.052Z,25.35
2022-08-16T05:46:56.193Z,25.27
2022-08-16T05:49:38.596Z,25.01
2022-08-16T05:52:11.424Z,25.57
2022-08-16T05:54:47.198Z,26.27
2022-08-16T05:57:18.622Z,25.31
2022-08-16T05:59:50.543Z,25.04
2022-08-16T06:02:33.288Z,25.98
2022-08-16T06:05:02.487Z,25.90
2022-08-16T06:07:32.167Z,26.03
2022-08-16T06:10:02.452Z,26.07
2022-08-16T06:12:31.547Z,26.01
2022-08-16T06:15:07.709Z,25.73
2022-08-16T06:17:42.363Z,25.45
2022-08-16T06:20:24.186Z,25.69
2022-08-16T06:23:03.699Z,25.79
2022-08-16T06:25:42.181Z,26.34
2022-08-16T06:28:17.139Z,26.25
2022-08-16T06:31:01.278Z,25.87
2022-08-16T06:33:41.135Z,26.46
2022-08-16T06:36:13.920Z,26.24
2022-08-16T06:38:55.400Z,26.35
2022-08-16T06:41:27.510Z,26.15
2022-08-16T06:43:56.774Z,26.14
2022-08-16T06:46:31.315Z,25.87
2022-08-16T06:49:06.471Z,26.28
2022-08-16T06:51:46.638Z,26.03
2022-08-16T06:54:18.439Z,26.09
2022-08-16T06:56:46.253Z,26.30
2022-08-16T06:59:14.313Z,26.54
2022-08-16T07:01:54.486Z,26.18
2022-08-16T07:04:32.544Z,26.83
2022-08-16T07:07:02.993Z,26.87
2022-08-16T07:09:31.546Z,26.85
2022-08-16T07:12:03.277Z,26.82
2022-08-16T07:14:35.139Z,26.95
2022-08-16T07:17:08.460Z,27.58
2022-08-16T07:20:30.227Z,27.77
2022-08-16T07:22:52.934Z,27.20
2022-08-16T07:25:25.872Z,26.06
2022-08-16T07:27:56.748Z,26.15
2022-08-16T07:30:39.127Z,26.36
2022-08-16T07:33:17.200Z,26.62
2022-08-16T07:36:06.572Z,26.00
2022-08-16T07:38:36.111Z,25.70
2022-08-16T07:41:09.967Z,25.62
2022-08-16T07:43:40.511Z,25.33
2022-08-16T07:46:39.713Z,25.87
2022-08-16T07:49:02.113Z,25.94
2022-08-16T07:51:35.534Z,26.20
2022-08-16T07:54:09.618Z,25.96
2022-08-16T07:56:40.772Z,26.19
2022-08-16T07:59:08.762Z,26.70
2022-08-16T08:01:38.412Z,27.30
2022-08-16T08:04:13.434Z,26.68
2022-08-16T08:06:42.690Z,26.90
2022-08-16T08:09:11.622Z,27.10
2022-08-16T08:11:39.800Z,27.22
2022-08-16T08:14:08.722Z,27.05
2022-08-16T08:16:57.005Z,27.17
2022-08-16T08:19:29.423Z,27.13
2022-08-16T08:22:01.269Z,27.03
2022-08-16T08:24:33.122Z,27.61
2022-08-16T08:27:03.978Z,27.73
2022-08-16T08:29:37.554Z,28.47
2022-08-16T08:32:57.919Z,28.80
2022-08-16T08:35:03.034Z,29.01
2022-08-16T08:37:53.825Z,29.40
2022-08-16T08:40:26.592Z,31.23
2022-08-16T08:42:57.776Z,31.75
2022-08-16T08:45:48.918Z,32.12
2022-08-16T08:48:33.952Z,32.29
2022-08-16T08:51:05.678Z,32.74
2022-08-16T08:53:39.951Z,33.19
2022-08-16T08:56:23.175Z,34.42
2022-08-16T08:58:59.981Z,34.37
2022-08-16T09:01:36.872Z,34.19
2022-08-16T09:04:17.463Z,35.03
2022-08-16T09:06:50.343Z,34.65
2022-08-16T09:09:24.045Z,35.15
2022-08-16T09:12:06.414Z,35.65
2022-08-16T09:14:49.398Z,35.24
2022-08-16T09:17:38.270Z,35.67
2022-08-16T09:20:16.953Z,35.34
2022-08-16T09:22:52.332Z,35.91
2022-08-16T09:25:26.048Z,35.56
2022-08-16T09:27:56.750Z,35.80
2022-08-16T09:30:33.670Z,35.93
2022-08-16T09:33:06.720Z,34.93
2022-08-16T09:35:39.125Z,35.58
2022-08-16T09:38:31.532Z,36.09
2022-08-16T09:41:03.391Z,35.86
2022-08-16T09:43:58.786Z,36.42
2022-08-16T09:46:44.640Z,36.47
2022-08-16T09:49:19.642Z,37.29
2022-08-16T09:51:55.567Z,36.74
2022-08-16T09:54:32.727Z,36.67
2022-08-16T09:57:07.934Z,36.76
2022-08-16T09:59:43.852Z,37.85
2022-08-16T10:02:25.932Z,37.17
2022-08-16T10:04:59.031Z,37.56
2022-08-16T10:07:45.050Z,38.15
2022-08-16T10:10:48.002Z,37.38
2022-08-16T10:13:46.907Z,37.82
2022-08-16T10:16:22.074Z,37.92
2022-08-16T10:19:01.838Z,37.66
2022-08-16T10:21:48.332Z,39.11
2022-08-16T10:24:56.218Z,38.81
2022-08-16T10:27:45.666Z,39.48
2022-08-16T10:30:46.009Z,38.77
2022-08-16T10:34:00.020Z,39.49
2022-08-16T10:36:59.472Z,39.56
2022-08-16T10:39:56.321Z,38.80
2022-08-16T10:46:39.684Z,38.35
2022-08-16T10:49:40.303Z,38.69
2022-08-16T10:52:27.362Z,38.10
2022-08-16T10:55:40.354Z,39.34
2022-08-16T10:58:16.989Z,39.72
2022-08-16T11:00:46.703Z,40.18
2022-08-16T11:03:46.052Z,39.33
2022-08-16T11:06:33.182Z,37.71
2022-08-16T11:12:13.904Z,39.70
2022-08-16T11:17:34.062Z,39.56
2022-08-16T11:22:52.616Z,39.85
2022-08-16T11:29:11.910Z,40.43
2022-08-16T11:31:07.640Z,41.14
2022-08-16T11:33:52.695Z,40.50
2022-08-16T11:36:27.279Z,40.65
2022-08-16T11:39:00.517Z,40.65
2022-08-16T11:41:50.652Z,40.98
2022-08-16T11:44:43.702Z,38.95
2022-08-16T11:47:11.182Z,38.78
2022-08-16T11:49:47.870Z,39.53
2022-08-16T11:52:27.816Z,39.81
2022-08-16T11:55:00.353Z,39.52
2022-08-16T11:57:33.767Z,39.80
2022-08-16T12:00:34.172Z,39.59
2022-08-16T12:03:12.268Z,39.22
2022-08-16T12:06:03.199Z,39.37
2022-08-16T12:08:49.662Z,39.72
2022-08-16T12:11:22.613Z,38.83
2022-08-16T12:13:56.471Z,38.24
2022-08-16T12:16:24.828Z,37.81
2022-08-16T12:19:00.943Z,37.13
2022-08-16T12:22:05.367Z,38.21
2022-08-16T12:25:17.477Z,37.45
2022-08-16T12:27:56.558Z,37.12
2022-08-16T12:30:50.132Z,38.28
2022-08-16T12:33:25.272Z,37.87
2022-08-16T12:35:54.191Z,37.28
2022-08-16T12:38:40.811Z,36.32
2022-08-16T12:41:13.931Z,35.43
2022-08-16T12:43:57.217Z,34.82
2022-08-16T12:46:31.292Z,34.83
2022-08-16T12:49:03.490Z,34.52
2022-08-16T12:51:59.965Z,34.89
2022-08-16T12:54:28.426Z,34.77
2022-08-16T12:57:02.850Z,34.31
2022-08-16T12:59:49.341Z,33.79
2022-08-16T13:02:33.806Z,33.28
2022-08-16T13:05:09.002Z,32.71
2022-08-16T13:07:45.175Z,33.13
2022-08-16T13:10:37.048Z,33.78
2022-08-16T13:13:09.301Z,33.64
2022-08-16T13:15:51.726Z,33.80
2022-08-16T13:18:33.780Z,32.94
2022-08-16T13:21:07.982Z,33.24
2022-08-16T13:23:43.398Z,33.06
2022-08-16T13:26:12.983Z,33.00
2022-08-16T13:28:47.903Z,32.80
2022-08-16T13:31:16.925Z,33.22
2022-08-16T13:33:45.426Z,33.15
2022-08-16T13:36:32.329Z,32.95
2022-08-16T13:39:04.448Z,33.34
2022-08-16T13:41:33.080Z,33.50
2022-08-16T13:44:04.250Z,33.90
2022-08-16T13:46:37.950Z,33.68
2022-08-16T13:49:07.062Z,34.67
2022-08-16T13:51:34.983Z,34.77
2022-08-16T13:54:07.596Z,34.64
2022-08-16T13:56:39.781Z,34.54
2022-08-16T13:59:19.198Z,34.65
2022-08-16T14:01:54.968Z,35.21
2022-08-16T14:04:29.972Z,35.15
2022-08-16T14:07:00.593Z,35.02
2022-08-16T14:09:30.496Z,35.29
2022-08-16T14:12:01.201Z,35.36
2022-08-16T14:14:37.654Z,35.42
2022-08-16T14:17:05.680Z,36.02
2022-08-16T14:19:44.760Z,36.29
2022-08-16T14:22:30.553Z,35.86
2022-08-16T14:25:00.699Z,36.48
2022-08-16T14:27:30.921Z,36.43
2022-08-16T14:29:59.595Z,36.83
2022-08-16T14:32:34.141Z,37.01
2022-08-16T14:35:07.376Z,36.28
2022-08-16T14:37:37.235Z,36.77
2022-08-16T14:40:10.781Z,36.96
2022-08-16T14:42:41.659Z,36.18
2022-08-16T14:45:15.741Z,36.70
2022-08-16T14:47:45.449Z,36.51
2022-08-16T14:50:16.310Z,36.70
2022-08-16T14:53:13.257Z,36.64
2022-08-16T14:55:36.984Z,37.00
2022-08-16T14:58:18.839Z,36.35
2022-08-16T15:00:50.455Z,36.36
2022-08-16T15:03:21.984Z,37.23
2022-08-16T15:05:53.755Z,37.17
2022-08-16T15:08:21.982Z,36.78
2022-08-16T15:11:07.768Z,36.76
2022-08-16T15:13:36.112Z,36.94
2022-08-16T15:16:05.720Z,36.35
2022-08-16T15:18:33.920Z,36.84
2022-08-16T15:21:04.991Z,36.39
2022-08-16T15:23:34.275Z,35.58
2022-08-16T15:26:04.105Z,35.72
2022-08-16T15:28:36.903Z,36.10
2022-08-16T15:31:08.507Z,36.22
2022-08-16T15:33:44.439Z,36.46
2022-08-16T15:36:19.249Z,36.17
2022-08-16T15:39:02.834Z,35.83
2022-08-16T15:41:38.873Z,35.47
2022-08-16T15:44:13.422Z,35.24
2022-08-16T15:46:55.185Z,34.97
2022-08-16T15:49:37.122Z,34.78
2022-08-16T15:52:11.423Z,34.90
2022-08-16T15:54:52.328Z,34.82
2022-08-16T15:57:25.886Z,34.84
2022-08-16T15:59:55.841Z,35.17
2022-08-16T16:02:39.069Z,34.56
2022-08-16T16:05:10.213Z,34.35
2022-08-16T16:07:40.896Z,34.20
2022-08-16T16:10:29.453Z,34.26
2022-08-16T16:13:00.704Z,34.14
2022-08-16T16:15:31.991Z,33.60
2022-08-16T16:17:59.909Z,33.86
2022-08-16T16:20:43.799Z,33.47
2022-08-16T16:23:11.815Z,33.43
2022-08-16T16:25:43.912Z,33.48
2022-08-16T16:29:05.856Z,33.22
2022-08-16T16:31:10.161Z,32.63
2022-08-16T16:33:43.370Z,32.56
2022-08-16T16:36:15.531Z,32.57
2022-08-16T16:38:47.909Z,32.57
2022-08-16T16:41:22.881Z,32.43
2022-08-16T16:43:53.540Z,33.00
2022-08-16T16:46:39.044Z,33.15
2022-08-16T16:49:14.165Z,32.98
2022-08-16T16:51:44.835Z,32.80
2022-08-16T16:54:27.507Z,33.09
2022-08-16T16:56:58.435Z,32.74
2022-08-16T16:59:28.229Z,33.28
2022-08-16T17:02:28.238Z,32.85
2022-08-16T17:04:47.510Z,33.56
2022-08-16T17:07:16.670Z,33.15
2022-08-16T17:09:46.966Z,33.04
2022-08-16T17:15:05.476Z,33.36
2022-08-16T17:17:38.961Z,33.06
2022-08-16T17:20:25.315Z,32.96
2022-08-16T17:22:55.902Z,33.20
2022-08-16T17:25:25.441Z,33.63
2022-08-16T17:27:53.954Z,33.52
2022-08-16T17:30:44.905Z,33.24
2022-08-16T17:33:13.510Z,33.00
2022-08-16T17:35:45.871Z,32.73
2022-08-16T17:38:38.547Z,32.52
2022-08-16T17:39:26.138Z,33.14
2022-08-16T17:41:12.360Z,33.49
2022-08-16T17:43:44.289Z,32.76
2022-08-16T17:46:50.852Z,32.07
2022-08-16T17:49:06.459Z,32.30
2022-08-16T17:51:34.567Z,30.92
2022-08-16T17:54:03.701Z,31.16
2022-08-16T17:56:31.851Z,31.13
2022-08-16T17:59:00.101Z,30.78
2022-08-16T18:01:28.248Z,30.83
2022-08-16T18:04:09.165Z,29.86
2022-08-16T18:06:38.824Z,29.46
2022-08-16T18:09:07.922Z,28.83
2022-08-16T18:11:43.140Z,29.66
2022-08-16T18:14:15.852Z,29.66
2022-08-16T18:16:46.490Z,30.31
2022-08-16T18:19:15.092Z,30.45
2022-08-16T18:22:01.973Z,30.21
2022-08-16T18:24:30.356Z,29.92
2022-08-16T18:27:25.177Z,30.45
2022-08-16T18:29:49.919Z,30.23
2022-08-16T18:32:22.165Z,29.07
2022-08-16T18:34:54.991Z,28.38
2022-08-16T18:37:24.149Z,28.16
2022-08-16T18:39:52.803Z,28.06
2022-08-16T18:42:21.861Z,28.43
2022-08-16T18:44:50.577Z,29.29
2022-08-16T18:47:19.181Z,29.34
2022-08-16T18:49:49.451Z,28.60
2022-08-16T18:52:25.032Z,27.19
2022-08-16T18:55:02.336Z,26.67
2022-08-16T18:57:42.537Z,27.88
2022-08-16T19:00:15.031Z,27.52
2022-08-16T19:02:57.387Z,26.91
2022-08-16T19:05:30.137Z,26.95
2022-08-16T19:08:02.581Z,27.33
2022-08-16T19:10:33.582Z,27.00
2022-08-16T19:13:07.544Z,26.59
2022-08-16T19:15:37.684Z,26.07
2022-08-16T19:18:06.183Z,25.54
2022-08-16T19:20:34.664Z,26.26
2022-08-16T19:23:05.389Z,25.64
2022-08-16T19:25:46.663Z,25.88
2022-08-16T19:28:59.123Z,25.56
2022-08-16T19:31:29.165Z,25.76
2022-08-16T19:33:58.598Z,25.78
2022-08-16T19:36:36.964Z,25.08
2022-08-16T19:39:11.992Z,25.25
2022-08-16T19:41:44.286Z,25.21
2022-08-16T19:44:13.993Z,25.22
2022-08-16T19:46:45.223Z,25.04
2022-08-16T19:49:16.014Z,24.79
2022-08-16T19:51:46.788Z,24.66
2022-08-16T19:54:16.253Z,24.57
2022-08-16T19:56:44.875Z,24.53
2022-08-16T19:59:39.145Z,24.52
2022-08-16T20:02:03.799Z,24.35
2022-08-16T20:04:33.360Z,24.18
2022-08-16T20:07:02.391Z,23.97
2022-08-16T20:09:30.933Z,23.44
2022-08-16T20:12:06.207Z,23.62
2022-08-16T20:14:34.962Z,23.73
2022-08-16T20:17:03.862Z,22.97
2022-08-16T20:19:38.766Z,23.36
2022-08-16T20:22:51.778Z,23.58
2022-08-16T20:25:28.184Z,23.64
2022-08-16T20:27:58.292Z,23.21
2022-08-16T20:30:27.173Z,23.35
2022-08-16T20:32:56.129Z,22.89
2022-08-16T20:35:27.763Z,23.44
2022-08-16T20:37:56.664Z,23.50
2022-08-16T20:40:35.029Z,22.64
2022-08-16T20:43:10.662Z,22.62
2022-08-16T20:45:40.198Z,22.73
2022-08-16T20:48:08.702Z,22.51
2022-08-16T20:50:37.183Z,22.49
2022-08-16T20:53:06.643Z,23.04
2022-08-16T20:55:36.280Z,22.96
2022-08-16T20:58:04.165Z,22.35
2022-08-16T21:00:33.723Z,22.96
2022-08-16T21:03:06.883Z,22.45
2022-08-16T21:05:35.815Z,22.86
2022-08-16T21:08:09.696Z,22.82
2022-08-16T21:10:52.782Z,22.58
2022-08-16T21:13:21.152Z,22.31
2022-08-16T21:15:49.241Z,22.41
2022-08-16T21:18:17.616Z,22.45
2022-08-16T21:20:45.315Z,22.47
2022-08-16T21:23:13.134Z,22.12
2022-08-16T21:25:58.044Z,22.07
2022-08-16T21:28:40.137Z,22.24
2022-08-16T21:31:11.542Z,22.27
2022-08-16T21:33:39.721Z,22.42
2022-08-16T21:36:07.813Z,21.55
2022-08-16T21:38:36.072Z,21.94
2022-08-16T21:41:05.254Z,21.91
2022-08-16T21:43:34.012Z,21.34
2022-08-16T21:46:03.496Z,21.82
2022-08-16T21:48:34.712Z,21.59
2022-08-16T21:51:09.217Z,22.21
2022-08-16T21:53:37.667Z,22.40
2022-08-16T21:56:06.662Z,22.14
2022-08-16T21:58:36.122Z,22.05
2022-08-16T22:01:04.082Z,22.06
2022-08-16T22:03:33.139Z,21.88
2022-08-16T22:06:12.707Z,21.91
2022-08-16T22:08:50.056Z,21.63
2022-08-16T22:11:20.345Z,21.66
2022-08-16T22:13:57.394Z,21.39
2022-08-16T22:16:30.534Z,21.48
2022-08-16T22:18:59.945Z,21.34
2022-08-16T22:21:27.824Z,21.23
2022-08-16T22:23:58.480Z,21.43
2022-08-16T22:26:30.251Z,21.46
2022-08-16T22:29:39.501Z,21.51
2022-08-16T22:32:10.393Z,21.18
2022-08-16T22:34:38.126Z,21.25
2022-08-16T22:37:05.862Z,20.97
2022-08-16T22:39:33.952Z,21.17
2022-08-16T22:42:08.356Z,21.14
2022-08-16T22:44:37.518Z,20.98
2022-08-16T22:47:05.353Z,20.67
2022-08-16T22:49:33.459Z,21.06
2022-08-16T22:52:09.072Z,21.08
2022-08-16T22:54:48.533Z,21.14
2022-08-16T22:57:17.152Z,20.51
2022-08-16T22:59:45.323Z,20.92
2022-08-16T23:02:13.357Z,20.98
2022-08-16T23:04:42.743Z,20.98
2022-08-16T23:07:10.613Z,20.98
2022-08-16T23:09:38.624Z,21.01
2022-08-16T23:12:07.682Z,20.94
2022-08-16T23:14:35.503Z,20.83
2022-08-16T23:17:03.464Z,20.92
2022-08-16T23:19:31.653Z,20.92
2022-08-16T23:21:59.604Z,20.95
2022-08-16T23:24:27.737Z,20.92
2022-08-16T23:26:55.833Z,20.73
2022-08-16T23:29:26.328Z,20.59
2022-08-16T23:31:59.054Z,20.73
2022-08-16T23:34:28.497Z,21.07
2022-08-16T23:36:56.656Z,21.09
2022-08-16T23:39:24.949Z,21.00
2022-08-16T23:41:53.462Z,20.98
2022-08-16T23:44:56.089Z,21.18
2022-08-16T23:47:09.754Z,20.95
2022-08-16T23:49:56.290Z,21.30
2022-08-16T23:52:40.576Z,21.35
2022-08-16T23:55:16.321Z,21.09
2022-08-16T23:57:46.415Z,21.05
